createdAt,value
2023-05-05T00:02:42.520Z,11.80
2023-05-05T00:15:32.532Z,11.60
2023-05-05T00:21:37.188Z,11.60
2023-05-05T00:27:54.043Z,11.00
2023-05-05T00:33:58.634Z,10.90
2023-05-05T00:40:05.939Z,10.70
2023-05-05T00:46:27.924Z,10.40
2023-05-05T00:52:57.095Z,10.10
2023-05-05T00:59:07.810Z,9.60
2023-05-05T01:06:16.375Z,9.00
2023-05-05T01:12:18.102Z,8.60
2023-05-05T01:19:14.438Z,8.30
2023-05-05T01:25:47.404Z,8.00
2023-05-05T01:31:53.636Z,7.80
2023-05-05T01:44:24.214Z,7.60
2023-05-05T01:50:40.618Z,7.40
2023-05-05T02:03:24.837Z,7.30
2023-05-05T02:09:31.081Z,7.20
2023-05-05T02:15:35.825Z,7.30
2023-05-05T02:21:38.761Z,7.20
2023-05-05T02:27:44.322Z,7.20
2023-05-05T02:33:49.468Z,7.20
2023-05-05T02:40:00.103Z,7.30
2023-05-05T02:46:04.333Z,7.30
2023-05-05T02:52:07.685Z,7.40
2023-05-05T02:58:28.310Z,7.50
2023-05-05T03:04:37.215Z,7.40
2023-05-05T03:11:14.284Z,7.50
2023-05-05T03:17:18.326Z,7.60
2023-05-05T03:23:22.749Z,7.60
2023-05-05T03:29:30.225Z,7.70
2023-05-05T03:35:33.151Z,7.70
2023-05-05T03:41:35.245Z,7.80
2023-05-05T03:47:38.584Z,7.70
2023-05-05T03:53:40.954Z,7.80
2023-05-05T03:59:43.992Z,7.70
2023-05-05T04:05:45.909Z,7.70
2023-05-05T04:11:47.801Z,7.60
2023-05-05T04:17:50.031Z,7.70
2023-05-05T04:23:52.950Z,8.20
2023-05-05T04:29:57.271Z,8.50
2023-05-05T04:35:59.855Z,8.80
2023-05-05T04:42:02.591Z,8.90
2023-05-05T04:48:05.723Z,9.40
2023-05-05T04:54:07.831Z,10.40
2023-05-05T05:00:10.496Z,10.80
2023-05-05T05:06:12.937Z,11.00
2023-05-05T05:12:14.757Z,11.30
2023-05-05T05:18:16.863Z,11.60
2023-05-05T05:24:19.115Z,11.70
2023-05-05T05:30:21.757Z,11.80
2023-05-05T05:36:23.634Z,11.70
2023-05-05T05:42:25.913Z,11.80
2023-05-05T05:48:29.401Z,11.90
2023-05-05T05:54:34.560Z,12.00
2023-05-05T06:00:37.738Z,12.10
2023-05-05T06:06:43.246Z,12.20
2023-05-05T06:12:45.385Z,12.60
2023-05-05T06:18:47.311Z,12.90
2023-05-05T06:24:49.881Z,13.20
2023-05-05T06:30:52.449Z,13.80
2023-05-05T06:36:54.343Z,14.30
2023-05-05T06:42:56.422Z,14.50
2023-05-05T06:49:03.592Z,15.00
2023-05-05T06:55:06.003Z,15.40
2023-05-05T07:01:07.968Z,15.70
2023-05-05T07:07:09.949Z,15.90
2023-05-05T07:13:11.875Z,16.30
2023-05-05T07:19:13.764Z,16.90
2023-05-05T07:25:16.203Z,17.50
2023-05-05T07:31:22.133Z,18.00
2023-05-05T07:37:24.033Z,18.50
2023-05-05T07:43:25.818Z,18.60
2023-05-05T07:49:27.706Z,18.80
2023-05-05T07:55:29.520Z,18.80
2023-05-05T08:01:31.359Z,18.80
2023-05-05T08:07:33.430Z,18.80
2023-05-05T08:13:35.517Z,19.00
2023-05-05T08:19:37.568Z,19.00
2023-05-05T08:25:39.642Z,18.90
2023-05-05T08:31:41.675Z,19.30
2023-05-05T08:37:43.716Z,19.70
2023-05-05T08:43:57.286Z,20.20
2023-05-05T08:49:59.749Z,20.20
2023-05-05T08:56:04.121Z,20.70
2023-05-05T09:02:08.592Z,21.30
2023-05-05T09:08:11.725Z,21.70
2023-05-05T09:14:13.564Z,21.80
2023-05-05T09:20:15.594Z,21.50
2023-05-05T09:26:17.472Z,21.70
2023-05-05T09:32:19.633Z,21.70
2023-05-05T09:38:23.654Z,21.90
2023-05-05T09:44:43.752Z,21.90
2023-05-05T09:50:46.127Z,21.50
2023-05-05T09:56:48.012Z,21.30
2023-05-05T10:02:49.880Z,21.00
2023-05-05T10:09:01.540Z,20.50
2023-05-05T10:15:05.309Z,19.80
2023-05-05T10:21:08.704Z,19.40
2023-05-05T10:27:15.683Z,19.20
2023-05-05T10:39:29.952Z,18.70
2023-05-05T10:45:32.191Z,18.90
2023-05-05T10:51:46.979Z,18.90
2023-05-05T10:57:53.867Z,19.00
2023-05-05T11:04:24.040Z,19.10
2023-05-05T11:10:26.446Z,19.30
2023-05-05T11:16:47.481Z,19.20
2023-05-05T11:23:05.285Z,19.30
2023-05-05T11:29:07.364Z,19.40
2023-05-05T11:35:09.407Z,19.70
2023-05-05T11:41:34.159Z,20.80
2023-05-05T11:47:36.303Z,21.50
2023-05-05T11:53:42.897Z,21.70
2023-05-05T12:00:01.142Z,21.90
2023-05-05T12:06:07.265Z,21.90
2023-05-05T12:12:09.875Z,22.20
2023-05-05T12:18:21.489Z,22.40
2023-05-05T12:24:23.336Z,22.60
2023-05-05T12:30:25.176Z,22.80
2023-05-05T12:36:29.207Z,22.90
2023-05-05T12:42:37.657Z,23.20
2023-05-05T12:48:41.910Z,23.30
2023-05-05T12:54:58.468Z,23.40
2023-05-05T13:01:10.609Z,23.60
2023-05-05T13:07:16.823Z,23.20
2023-05-05T13:13:18.742Z,23.20
2023-05-05T13:19:20.647Z,23.20
2023-05-05T13:25:22.562Z,22.80
2023-05-05T13:31:24.363Z,22.60
2023-05-05T13:37:26.197Z,22.50
2023-05-05T13:43:28.011Z,22.00
2023-05-05T13:49:30.135Z,21.90
2023-05-05T13:55:32.012Z,21.90
2023-05-05T14:01:33.962Z,21.80
2023-05-05T14:07:36.282Z,21.60
2023-05-05T14:13:38.094Z,21.40
2023-05-05T14:19:39.925Z,21.10
2023-05-05T14:25:41.782Z,20.90
2023-05-05T14:31:43.612Z,20.70
2023-05-05T14:37:45.422Z,20.40
2023-05-05T14:43:47.286Z,20.10
2023-05-05T14:58:04.756Z,19.60
2023-05-05T15:04:07.573Z,19.20
2023-05-05T15:10:09.848Z,18.90
2023-05-05T15:16:12.565Z,18.80
2023-05-05T15:22:14.413Z,18.70
2023-05-05T15:28:17.239Z,18.60
2023-05-05T15:34:18.960Z,18.80
2023-05-05T15:40:20.765Z,18.70
2023-05-05T15:46:22.931Z,18.70
2023-05-05T15:52:24.739Z,18.80
2023-05-05T15:58:26.530Z,18.80
2023-05-05T16:04:28.264Z,18.60
2023-05-05T16:10:29.990Z,18.30
2023-05-05T16:16:31.861Z,17.90
2023-05-05T16:22:33.660Z,17.70
2023-05-05T16:28:35.505Z,17.30
2023-05-05T16:34:37.256Z,16.90
2023-05-05T16:40:39.299Z,16.60
2023-05-05T16:46:41.193Z,16.30
2023-05-05T16:52:43.000Z,16.10
2023-05-05T16:58:44.868Z,15.90
2023-05-05T17:04:46.640Z,16.00
2023-05-05T17:10:48.533Z,16.00
2023-05-05T17:16:51.171Z,15.90
2023-05-05T17:22:53.006Z,15.60
2023-05-05T17:28:54.765Z,15.40
2023-05-05T17:34:56.549Z,15.30
2023-05-05T17:40:58.292Z,15.40
2023-05-05T17:47:00.140Z,15.20
2023-05-05T17:53:01.917Z,15.10
2023-05-05T17:59:03.887Z,15.00
2023-05-05T18:05:06.062Z,14.80
2023-05-05T18:11:08.396Z,14.70
2023-05-05T18:17:10.193Z,14.70
2023-05-05T18:23:12.827Z,14.60
2023-05-05T18:29:16.047Z,14.50
2023-05-05T18:35:17.969Z,14.60
2023-05-05T18:41:19.757Z,14.60
2023-05-05T18:47:21.706Z,14.80
2023-05-05T18:53:23.444Z,14.70
2023-05-05T18:59:25.341Z,14.60
2023-05-05T19:05:27.578Z,14.40
2023-05-05T19:11:29.333Z,14.20
2023-05-05T19:17:31.164Z,14.00
2023-05-05T19:23:33.414Z,13.90
2023-05-05T19:29:35.326Z,13.80
2023-05-05T19:35:37.070Z,13.70
2023-05-05T19:41:38.917Z,13.60
2023-05-05T19:47:40.892Z,13.60
2023-05-05T19:53:42.974Z,13.50
2023-05-05T19:59:44.774Z,13.40
2023-05-05T20:05:46.521Z,13.40
2023-05-05T20:11:48.243Z,13.30
2023-05-05T20:17:50.204Z,13.20
2023-05-05T20:23:54.487Z,13.10
2023-05-05T20:29:56.622Z,13.20
2023-05-05T20:35:58.447Z,13.40
2023-05-05T20:42:00.318Z,13.40
2023-05-05T20:48:02.250Z,13.40
2023-05-05T20:54:04.751Z,13.60
2023-05-05T21:00:12.155Z,13.70
2023-05-05T21:06:14.507Z,13.90
2023-05-05T21:12:16.318Z,13.90
2023-05-05T21:18:18.087Z,13.80
2023-05-05T21:24:19.841Z,13.70
2023-05-05T21:30:23.487Z,13.70
2023-05-05T21:36:25.393Z,13.70
2023-05-05T21:42:29.606Z,13.60
2023-05-05T21:48:31.772Z,13.50
2023-05-05T21:54:33.604Z,13.60
2023-05-05T22:00:35.586Z,13.50
2023-05-05T22:06:37.501Z,13.30
2023-05-05T22:12:39.665Z,13.10
2023-05-05T22:18:41.463Z,13.00
2023-05-05T22:24:46.165Z,12.90
2023-05-05T22:30:48.027Z,12.90
2023-05-05T22:36:52.426Z,12.80
2023-05-05T22:42:54.376Z,12.90
2023-05-05T22:48:56.555Z,12.90
2023-05-05T22:54:58.360Z,12.70
2023-05-05T23:01:00.419Z,12.60
2023-05-05T23:07:02.476Z,12.60
2023-05-05T23:13:04.453Z,12.70
2023-05-05T23:19:06.388Z,12.70
2023-05-05T23:25:08.880Z,12.70
2023-05-05T23:31:10.897Z,12.40
2023-05-05T23:37:14.184Z,12.10
2023-05-05T23:43:16.289Z,11.80
2023-05-05T23:49:18.124Z,11.50
2023-05-05T23:55:24.150Z,11.30
